Alvin, Wisconsin
Current Conditions -  °F | °C
As of 11:55 PM on Saturday 22 Nov 2014 (Local Time) from KEGV Reporting Station
Haze Haze  
Wind Chill: -2°   Ceiling: 200
Heat Index:   Visibility: 0.75mi
Dew Point:   Wind: 6mph
Humidity: 100%   Direction: 160°SSE
Pressure: 29.64"   Gusts: NA
Location:  45.9186°N, 88.7601°W
Report Text: KEGV 230555Z AUTO 16005KT 3/4SM BR OVC002 01/01 A2964 RMK AO2 P0002 60004 T00100010 10011 20001 400111036
Loading
Personal Weather Stations






























Interactive Weather Map New forecast layout! Learn more

10-Day Weather Forecast

Advertisements
Track Severe Weather on mobile